sensor_id;sensor_type;location;lat;lon;timestamp;P1;durP1;ratioP1;P2;durP2;ratioP2
16660;SDS011;8444;52.012;5.048;2023-05-06T00:01:06;13.80;;;10.80;;
16660;SDS011;8444;52.012;5.048;2023-05-06T00:03:32;16.52;;;11.43;;
16660;SDS011;8444;52.012;5.048;2023-05-06T00:05:58;15.95;;;11.45;;
16660;SDS011;8444;52.012;5.048;2023-05-06T00:08:23;17.13;;;12.52;;
16660;SDS011;8444;52.012;5.048;2023-05-06T00:10:48;16.15;;;12.20;;
16660;SDS011;8444;52.012;5.048;2023-05-06T00:13:13;15.38;;;12.43;;
16660;SDS011;8444;52.012;5.048;2023-05-06T00:15:39;18.27;;;12.80;;
16660;SDS011;8444;52.012;5.048;2023-05-06T00:18:04;15.57;;;12.13;;
16660;SDS011;8444;52.012;5.048;2023-05-06T00:20:29;14.73;;;11.43;;
16660;SDS011;8444;52.012;5.048;2023-05-06T00:22:55;14.30;;;10.77;;
16660;SDS011;8444;52.012;5.048;2023-05-06T00:25:20;19.02;;;12.20;;
16660;SDS011;8444;52.012;5.048;2023-05-06T00:27:45;19.60;;;12.95;;
16660;SDS011;8444;52.012;5.048;2023-05-06T00:30:11;15.00;;;11.47;;
16660;SDS011;8444;52.012;5.048;2023-05-06T00:32:36;17.58;;;11.80;;
16660;SDS011;8444;52.012;5.048;2023-05-06T00:35:02;15.07;;;11.73;;
16660;SDS011;8444;52.012;5.048;2023-05-06T00:37:27;16.77;;;11.17;;
16660;SDS011;8444;52.012;5.048;2023-05-06T00:39:52;20.60;;;11.47;;
16660;SDS011;8444;52.012;5.048;2023-05-06T00:42:18;17.43;;;11.90;;
16660;SDS011;8444;52.012;5.048;2023-05-06T00:44:43;16.93;;;11.03;;
16660;SDS011;8444;52.012;5.048;2023-05-06T00:47:08;14.37;;;11.17;;
16660;SDS011;8444;52.012;5.048;2023-05-06T00:49:34;16.90;;;11.70;;
16660;SDS011;8444;52.012;5.048;2023-05-06T00:51:59;17.37;;;12.07;;
16660;SDS011;8444;52.012;5.048;2023-05-06T00:54:25;18.93;;;12.33;;
16660;SDS011;8444;52.012;5.048;2023-05-06T00:56:50;15.60;;;12.07;;
16660;SDS011;8444;52.012;5.048;2023-05-06T00:59:16;16.90;;;12.20;;
16660;SDS011;8444;52.012;5.048;2023-05-06T01:01:41;16.43;;;12.00;;
16660;SDS011;8444;52.012;5.048;2023-05-06T01:04:07;16.47;;;11.37;;
16660;SDS011;8444;52.012;5.048;2023-05-06T01:09:20;14.70;;;11.97;;
16660;SDS011;8444;52.012;5.048;2023-05-06T01:11:51;16.20;;;11.80;;
16660;SDS011;8444;52.012;5.048;2023-05-06T01:14:38;15.17;;;11.70;;
16660;SDS011;8444;52.012;5.048;2023-05-06T01:17:05;16.80;;;11.87;;
16660;SDS011;8444;52.012;5.048;2023-05-06T01:19:42;20.87;;;12.80;;
16660;SDS011;8444;52.012;5.048;2023-05-06T01:22:10;17.17;;;12.80;;
16660;SDS011;8444;52.012;5.048;2023-05-06T01:24:37;19.37;;;13.33;;
16660;SDS011;8444;52.012;5.048;2023-05-06T01:27:03;17.90;;;12.97;;
16660;SDS011;8444;52.012;5.048;2023-05-06T01:29:28;17.53;;;13.40;;
16660;SDS011;8444;52.012;5.048;2023-05-06T01:31:53;17.90;;;12.73;;
16660;SDS011;8444;52.012;5.048;2023-05-06T01:34:23;17.37;;;12.37;;
16660;SDS011;8444;52.012;5.048;2023-05-06T01:36:57;21.67;;;14.03;;
16660;SDS011;8444;52.012;5.048;2023-05-06T01:39:24;19.47;;;13.80;;
16660;SDS011;8444;52.012;5.048;2023-05-06T01:41:50;19.97;;;13.63;;
16660;SDS011;8444;52.012;5.048;2023-05-06T01:44:15;20.87;;;12.93;;
16660;SDS011;8444;52.012;5.048;2023-05-06T01:46:42;19.70;;;13.27;;
16660;SDS011;8444;52.012;5.048;2023-05-06T01:49:07;19.63;;;13.90;;
16660;SDS011;8444;52.012;5.048;2023-05-06T01:51:35;24.83;;;15.73;;
16660;SDS011;8444;52.012;5.048;2023-05-06T01:54:00;20.20;;;15.77;;
16660;SDS011;8444;52.012;5.048;2023-05-06T01:56:26;18.20;;;13.60;;
16660;SDS011;8444;52.012;5.048;2023-05-06T01:58:54;21.30;;;15.13;;
16660;SDS011;8444;52.012;5.048;2023-05-06T02:01:19;19.87;;;14.53;;
16660;SDS011;8444;52.012;5.048;2023-05-06T02:03:44;16.90;;;12.70;;
16660;SDS011;8444;52.012;5.048;2023-05-06T02:06:09;19.57;;;14.67;;
16660;SDS011;8444;52.012;5.048;2023-05-06T02:08:34;20.93;;;14.13;;
16660;SDS011;8444;52.012;5.048;2023-05-06T02:11:00;21.30;;;14.67;;
16660;SDS011;8444;52.012;5.048;2023-05-06T02:13:25;22.80;;;16.07;;
16660;SDS011;8444;52.012;5.048;2023-05-06T02:15:53;21.80;;;15.27;;
16660;SDS011;8444;52.012;5.048;2023-05-06T02:18:18;22.70;;;14.93;;
16660;SDS011;8444;52.012;5.048;2023-05-06T02:20:44;24.10;;;17.53;;
16660;SDS011;8444;52.012;5.048;2023-05-06T02:23:09;25.43;;;17.87;;
16660;SDS011;8444;52.012;5.048;2023-05-06T02:25:34;25.17;;;17.97;;
16660;SDS011;8444;52.012;5.048;2023-05-06T02:27:59;21.87;;;17.60;;
16660;SDS011;8444;52.012;5.048;2023-05-06T02:30:24;23.70;;;16.50;;
16660;SDS011;8444;52.012;5.048;2023-05-06T02:32:50;24.50;;;16.63;;
16660;SDS011;8444;52.012;5.048;2023-05-06T02:35:15;25.50;;;17.60;;
16660;SDS011;8444;52.012;5.048;2023-05-06T02:37:40;22.63;;;16.27;;
16660;SDS011;8444;52.012;5.048;2023-05-06T02:40:05;23.77;;;16.50;;
16660;SDS011;8444;52.012;5.048;2023-05-06T02:42:32;25.00;;;16.23;;
16660;SDS011;8444;52.012;5.048;2023-05-06T02:44:58;22.60;;;16.37;;
16660;SDS011;8444;52.012;5.048;2023-05-06T02:47:23;21.93;;;16.47;;
16660;SDS011;8444;52.012;5.048;2023-05-06T02:49:48;22.53;;;15.53;;
16660;SDS011;8444;52.012;5.048;2023-05-06T02:52:13;22.63;;;15.43;;
16660;SDS011;8444;52.012;5.048;2023-05-06T02:54:38;20.83;;;16.07;;
16660;SDS011;8444;52.012;5.048;2023-05-06T02:57:04;21.87;;;15.53;;
16660;SDS011;8444;52.012;5.048;2023-05-06T02:59:29;24.00;;;16.13;;
16660;SDS011;8444;52.012;5.048;2023-05-06T03:01:54;19.40;;;15.20;;
16660;SDS011;8444;52.012;5.048;2023-05-06T03:04:20;19.97;;;14.00;;
16660;SDS011;8444;52.012;5.048;2023-05-06T03:06:46;21.67;;;14.20;;
16660;SDS011;8444;52.012;5.048;2023-05-06T03:09:11;25.00;;;15.87;;
16660;SDS011;8444;52.012;5.048;2023-05-06T03:11:36;21.73;;;15.17;;
16660;SDS011;8444;52.012;5.048;2023-05-06T03:14:01;21.20;;;15.20;;
16660;SDS011;8444;52.012;5.048;2023-05-06T03:16:27;21.33;;;15.60;;
16660;SDS011;8444;52.012;5.048;2023-05-06T03:18:52;22.07;;;15.20;;
16660;SDS011;8444;52.012;5.048;2023-05-06T03:21:17;22.37;;;15.33;;
16660;SDS011;8444;52.012;5.048;2023-05-06T03:23:42;22.07;;;15.47;;
16660;SDS011;8444;52.012;5.048;2023-05-06T03:26:08;21.67;;;14.70;;
16660;SDS011;8444;52.012;5.048;2023-05-06T03:28:33;22.23;;;16.00;;
16660;SDS011;8444;52.012;5.048;2023-05-06T03:30:58;22.07;;;15.20;;
16660;SDS011;8444;52.012;5.048;2023-05-06T03:33:23;21.30;;;14.33;;
16660;SDS011;8444;52.012;5.048;2023-05-06T03:35:48;24.30;;;16.20;;
16660;SDS011;8444;52.012;5.048;2023-05-06T03:38:14;23.87;;;15.73;;
16660;SDS011;8444;52.012;5.048;2023-05-06T03:40:39;23.80;;;15.50;;
16660;SDS011;8444;52.012;5.048;2023-05-06T03:43:04;22.23;;;15.43;;
16660;SDS011;8444;52.012;5.048;2023-05-06T03:45:29;21.70;;;15.00;;
16660;SDS011;8444;52.012;5.048;2023-05-06T03:47:55;21.47;;;15.03;;
16660;SDS011;8444;52.012;5.048;2023-05-06T03:50:20;23.23;;;15.50;;
16660;SDS011;8444;52.012;5.048;2023-05-06T03:52:45;21.50;;;15.47;;
16660;SDS011;8444;52.012;5.048;2023-05-06T03:55:11;24.30;;;15.53;;
16660;SDS011;8444;52.012;5.048;2023-05-06T03:57:36;27.07;;;17.30;;
16660;SDS011;8444;52.012;5.048;2023-05-06T04:00:01;22.73;;;15.97;;
16660;SDS011;8444;52.012;5.048;2023-05-06T04:02:26;23.03;;;15.90;;
16660;SDS011;8444;52.012;5.048;2023-05-06T04:04:53;26.30;;;17.30;;
16660;SDS011;8444;52.012;5.048;2023-05-06T04:07:18;20.93;;;15.70;;
16660;SDS011;8444;52.012;5.048;2023-05-06T04:09:43;22.30;;;15.03;;
16660;SDS011;8444;52.012;5.048;2023-05-06T04:12:08;23.53;;;16.23;;
16660;SDS011;8444;52.012;5.048;2023-05-06T04:14:34;23.97;;;16.77;;
16660;SDS011;8444;52.012;5.048;2023-05-06T04:16:59;23.87;;;15.37;;
16660;SDS011;8444;52.012;5.048;2023-05-06T04:19:24;25.60;;;17.03;;
16660;SDS011;8444;52.012;5.048;2023-05-06T04:21:50;25.77;;;16.53;;
16660;SDS011;8444;52.012;5.048;2023-05-06T04:24:16;25.50;;;15.53;;
16660;SDS011;8444;52.012;5.048;2023-05-06T04:26:41;23.37;;;17.00;;
16660;SDS011;8444;52.012;5.048;2023-05-06T04:29:07;27.80;;;17.33;;
16660;SDS011;8444;52.012;5.048;2023-05-06T04:31:32;24.40;;;16.03;;
16660;SDS011;8444;52.012;5.048;2023-05-06T04:33:59;26.77;;;17.23;;
16660;SDS011;8444;52.012;5.048;2023-05-06T04:36:24;33.73;;;20.33;;
16660;SDS011;8444;52.012;5.048;2023-05-06T04:38:49;29.97;;;19.17;;
16660;SDS011;8444;52.012;5.048;2023-05-06T04:41:16;33.07;;;19.07;;
16660;SDS011;8444;52.012;5.048;2023-05-06T04:43:41;31.27;;;19.30;;
16660;SDS011;8444;52.012;5.048;2023-05-06T04:46:07;26.17;;;18.07;;
16660;SDS011;8444;52.012;5.048;2023-05-06T04:48:32;30.53;;;19.27;;
16660;SDS011;8444;52.012;5.048;2023-05-06T04:50:57;27.90;;;18.60;;
16660;SDS011;8444;52.012;5.048;2023-05-06T04:53:22;25.17;;;17.65;;
16660;SDS011;8444;52.012;5.048;2023-05-06T04:55:48;23.87;;;17.63;;
16660;SDS011;8444;52.012;5.048;2023-05-06T04:58:13;28.27;;;18.00;;
16660;SDS011;8444;52.012;5.048;2023-05-06T05:00:38;22.58;;;15.77;;
16660;SDS011;8444;52.012;5.048;2023-05-06T05:03:03;20.20;;;15.20;;
16660;SDS011;8444;52.012;5.048;2023-05-06T05:05:29;21.45;;;15.40;;
16660;SDS011;8444;52.012;5.048;2023-05-06T05:07:55;22.17;;;15.32;;
16660;SDS011;8444;52.012;5.048;2023-05-06T05:10:20;21.90;;;16.20;;
16660;SDS011;8444;52.012;5.048;2023-05-06T05:12:45;21.00;;;15.38;;
16660;SDS011;8444;52.012;5.048;2023-05-06T05:15:11;18.70;;;13.63;;
16660;SDS011;8444;52.012;5.048;2023-05-06T05:17:36;19.60;;;14.02;;
16660;SDS011;8444;52.012;5.048;2023-05-06T05:20:01;18.90;;;13.32;;
16660;SDS011;8444;52.012;5.048;2023-05-06T05:22:27;22.05;;;14.90;;
16660;SDS011;8444;52.012;5.048;2023-05-06T05:24:52;22.70;;;14.80;;
16660;SDS011;8444;52.012;5.048;2023-05-06T05:27:17;19.52;;;13.80;;
16660;SDS011;8444;52.012;5.048;2023-05-06T05:29:42;20.17;;;13.88;;
16660;SDS011;8444;52.012;5.048;2023-05-06T05:32:07;18.25;;;13.02;;
16660;SDS011;8444;52.012;5.048;2023-05-06T05:34:33;17.02;;;13.20;;
16660;SDS011;8444;52.012;5.048;2023-05-06T05:36:58;20.98;;;14.30;;
16660;SDS011;8444;52.012;5.048;2023-05-06T05:39:23;18.23;;;12.98;;
16660;SDS011;8444;52.012;5.048;2023-05-06T05:41:48;19.73;;;15.15;;
16660;SDS011;8444;52.012;5.048;2023-05-06T05:44:14;20.58;;;14.85;;
16660;SDS011;8444;52.012;5.048;2023-05-06T05:46:39;20.98;;;14.52;;
16660;SDS011;8444;52.012;5.048;2023-05-06T05:49:04;17.92;;;13.50;;
16660;SDS011;8444;52.012;5.048;2023-05-06T05:51:30;21.30;;;14.82;;
16660;SDS011;8444;52.012;5.048;2023-05-06T05:53:55;19.73;;;14.77;;
16660;SDS011;8444;52.012;5.048;2023-05-06T05:56:20;19.15;;;13.48;;
16660;SDS011;8444;52.012;5.048;2023-05-06T05:58:46;18.30;;;13.05;;
16660;SDS011;8444;52.012;5.048;2023-05-06T06:01:11;18.70;;;13.18;;
16660;SDS011;8444;52.012;5.048;2023-05-06T06:03:37;18.95;;;13.45;;
16660;SDS011;8444;52.012;5.048;2023-05-06T06:06:02;20.02;;;13.75;;
16660;SDS011;8444;52.012;5.048;2023-05-06T06:08:27;19.77;;;13.18;;
16660;SDS011;8444;52.012;5.048;2023-05-06T06:10:53;17.75;;;13.30;;
16660;SDS011;8444;52.012;5.048;2023-05-06T06:13:19;17.08;;;12.82;;
16660;SDS011;8444;52.012;5.048;2023-05-06T06:15:44;18.05;;;12.75;;
16660;SDS011;8444;52.012;5.048;2023-05-06T06:18:10;17.70;;;14.02;;
16660;SDS011;8444;52.012;5.048;2023-05-06T06:20:35;19.75;;;13.68;;
16660;SDS011;8444;52.012;5.048;2023-05-06T06:23:01;18.30;;;13.05;;
16660;SDS011;8444;52.012;5.048;2023-05-06T06:25:26;17.63;;;13.05;;
16660;SDS011;8444;52.012;5.048;2023-05-06T06:27:52;15.38;;;12.70;;
16660;SDS011;8444;52.012;5.048;2023-05-06T06:30:18;16.98;;;13.02;;
16660;SDS011;8444;52.012;5.048;2023-05-06T06:32:47;16.00;;;12.00;;
16660;SDS011;8444;52.012;5.048;2023-05-06T06:35:13;16.60;;;11.48;;
16660;SDS011;8444;52.012;5.048;2023-05-06T06:37:38;16.35;;;11.32;;
16660;SDS011;8444;52.012;5.048;2023-05-06T06:40:03;13.95;;;11.48;;
16660;SDS011;8444;52.012;5.048;2023-05-06T06:42:29;15.93;;;11.98;;
16660;SDS011;8444;52.012;5.048;2023-05-06T06:44:54;16.55;;;10.93;;
16660;SDS011;8444;52.012;5.048;2023-05-06T06:47:19;16.13;;;12.07;;
16660;SDS011;8444;52.012;5.048;2023-05-06T06:49:44;16.85;;;11.82;;
16660;SDS011;8444;52.012;5.048;2023-05-06T06:52:10;15.35;;;11.55;;
16660;SDS011;8444;52.012;5.048;2023-05-06T06:54:36;14.95;;;11.75;;
16660;SDS011;8444;52.012;5.048;2023-05-06T06:57:01;16.60;;;11.57;;
16660;SDS011;8444;52.012;5.048;2023-05-06T06:59:26;21.95;;;11.90;;
16660;SDS011;8444;52.012;5.048;2023-05-06T07:01:52;13.85;;;10.75;;
16660;SDS011;8444;52.012;5.048;2023-05-06T07:04:17;15.25;;;11.38;;
16660;SDS011;8444;52.012;5.048;2023-05-06T07:06:42;12.23;;;9.75;;
16660;SDS011;8444;52.012;5.048;2023-05-06T07:09:07;13.23;;;9.90;;
16660;SDS011;8444;52.012;5.048;2023-05-06T07:11:32;13.85;;;9.35;;
16660;SDS011;8444;52.012;5.048;2023-05-06T07:13:57;14.10;;;9.93;;
16660;SDS011;8444;52.012;5.048;2023-05-06T07:16:23;13.43;;;10.50;;
16660;SDS011;8444;52.012;5.048;2023-05-06T07:18:48;14.60;;;9.73;;
16660;SDS011;8444;52.012;5.048;2023-05-06T07:21:14;14.00;;;11.02;;
16660;SDS011;8444;52.012;5.048;2023-05-06T07:23:39;15.70;;;10.13;;
16660;SDS011;8444;52.012;5.048;2023-05-06T07:26:05;15.35;;;10.25;;
16660;SDS011;8444;52.012;5.048;2023-05-06T07:28:30;14.85;;;9.55;;
16660;SDS011;8444;52.012;5.048;2023-05-06T07:30:55;13.80;;;8.90;;
16660;SDS011;8444;52.012;5.048;2023-05-06T07:33:20;15.02;;;10.20;;
16660;SDS011;8444;52.012;5.048;2023-05-06T07:35:46;11.77;;;10.32;;
16660;SDS011;8444;52.012;5.048;2023-05-06T07:38:11;18.38;;;12.35;;
16660;SDS011;8444;52.012;5.048;2023-05-06T07:40:36;15.85;;;10.10;;
16660;SDS011;8444;52.012;5.048;2023-05-06T07:43:01;16.65;;;11.75;;
16660;SDS011;8444;52.012;5.048;2023-05-06T07:45:27;17.48;;;12.63;;
16660;SDS011;8444;52.012;5.048;2023-05-06T07:47:52;19.27;;;11.27;;
16660;SDS011;8444;52.012;5.048;2023-05-06T07:50:18;17.95;;;11.65;;
16660;SDS011;8444;52.012;5.048;2023-05-06T07:52:43;14.90;;;10.60;;
16660;SDS011;8444;52.012;5.048;2023-05-06T07:55:08;13.27;;;10.10;;
16660;SDS011;8444;52.012;5.048;2023-05-06T07:57:34;15.93;;;10.50;;
16660;SDS011;8444;52.012;5.048;2023-05-06T07:59:59;15.23;;;10.68;;
16660;SDS011;8444;52.012;5.048;2023-05-06T08:02:24;15.93;;;10.93;;
16660;SDS011;8444;52.012;5.048;2023-05-06T08:04:50;16.05;;;10.30;;
16660;SDS011;8444;52.012;5.048;2023-05-06T08:07:16;15.32;;;11.75;;
16660;SDS011;8444;52.012;5.048;2023-05-06T08:09:41;17.05;;;11.60;;
16660;SDS011;8444;52.012;5.048;2023-05-06T08:12:06;17.48;;;10.95;;
16660;SDS011;8444;52.012;5.048;2023-05-06T08:14:31;15.88;;;11.65;;
16660;SDS011;8444;52.012;5.048;2023-05-06T08:16:57;17.10;;;11.97;;
16660;SDS011;8444;52.012;5.048;2023-05-06T08:19:22;16.17;;;11.80;;
16660;SDS011;8444;52.012;5.048;2023-05-06T08:21:47;19.37;;;12.33;;
16660;SDS011;8444;52.012;5.048;2023-05-06T08:24:12;15.85;;;11.57;;
16660;SDS011;8444;52.012;5.048;2023-05-06T08:26:38;18.13;;;11.40;;
16660;SDS011;8444;52.012;5.048;2023-05-06T08:29:03;16.65;;;11.23;;
16660;SDS011;8444;52.012;5.048;2023-05-06T08:31:28;14.90;;;10.63;;
16660;SDS011;8444;52.012;5.048;2023-05-06T08:33:53;18.43;;;12.10;;
16660;SDS011;8444;52.012;5.048;2023-05-06T08:36:19;13.37;;;10.67;;
16660;SDS011;8444;52.012;5.048;2023-05-06T08:38:44;17.27;;;11.37;;
16660;SDS011;8444;52.012;5.048;2023-05-06T08:41:14;15.95;;;11.48;;
16660;SDS011;8444;52.012;5.048;2023-05-06T08:43:41;14.77;;;10.98;;
16660;SDS011;8444;52.012;5.048;2023-05-06T08:46:06;19.92;;;12.75;;
16660;SDS011;8444;52.012;5.048;2023-05-06T08:48:32;18.90;;;12.35;;
16660;SDS011;8444;52.012;5.048;2023-05-06T08:50:57;21.92;;;13.50;;
16660;SDS011;8444;52.012;5.048;2023-05-06T08:53:24;19.90;;;12.10;;
16660;SDS011;8444;52.012;5.048;2023-05-06T08:55:49;15.68;;;11.00;;
16660;SDS011;8444;52.012;5.048;2023-05-06T08:58:15;15.70;;;11.70;;
16660;SDS011;8444;52.012;5.048;2023-05-06T09:00:41;18.90;;;11.25;;
16660;SDS011;8444;52.012;5.048;2023-05-06T09:03:07;17.92;;;12.20;;
16660;SDS011;8444;52.012;5.048;2023-05-06T09:05:32;16.27;;;11.93;;
16660;SDS011;8444;52.012;5.048;2023-05-06T09:07:57;15.40;;;12.23;;
16660;SDS011;8444;52.012;5.048;2023-05-06T09:10:22;16.93;;;12.70;;
16660;SDS011;8444;52.012;5.048;2023-05-06T09:12:47;15.80;;;12.10;;
16660;SDS011;8444;52.012;5.048;2023-05-06T09:15:13;15.87;;;11.37;;
16660;SDS011;8444;52.012;5.048;2023-05-06T09:17:38;17.05;;;12.27;;
16660;SDS011;8444;52.012;5.048;2023-05-06T09:20:03;17.23;;;11.25;;
16660;SDS011;8444;52.012;5.048;2023-05-06T09:22:32;16.17;;;11.05;;
16660;SDS011;8444;52.012;5.048;2023-05-06T09:24:57;16.50;;;12.05;;
16660;SDS011;8444;52.012;5.048;2023-05-06T09:27:27;16.40;;;10.88;;
16660;SDS011;8444;52.012;5.048;2023-05-06T09:32:25;14.05;;;10.52;;
16660;SDS011;8444;52.012;5.048;2023-05-06T09:34:50;14.98;;;10.30;;
16660;SDS011;8444;52.012;5.048;2023-05-06T09:37:15;14.00;;;10.50;;
16660;SDS011;8444;52.012;5.048;2023-05-06T09:39:41;14.83;;;9.97;;
16660;SDS011;8444;52.012;5.048;2023-05-06T09:42:06;15.30;;;11.33;;
16660;SDS011;8444;52.012;5.048;2023-05-06T09:44:32;13.40;;;9.65;;
16660;SDS011;8444;52.012;5.048;2023-05-06T09:46:57;15.13;;;9.50;;
16660;SDS011;8444;52.012;5.048;2023-05-06T09:49:23;15.25;;;10.93;;
16660;SDS011;8444;52.012;5.048;2023-05-06T09:51:48;12.73;;;8.60;;
16660;SDS011;8444;52.012;5.048;2023-05-06T09:54:15;11.63;;;8.05;;
16660;SDS011;8444;52.012;5.048;2023-05-06T09:56:41;11.75;;;7.72;;
16660;SDS011;8444;52.012;5.048;2023-05-06T09:59:08;11.10;;;6.88;;
16660;SDS011;8444;52.012;5.048;2023-05-06T10:01:34;11.43;;;5.95;;
16660;SDS011;8444;52.012;5.048;2023-05-06T10:04:00;12.38;;;7.18;;
16660;SDS011;8444;52.012;5.048;2023-05-06T10:06:26;9.32;;;6.70;;
16660;SDS011;8444;52.012;5.048;2023-05-06T10:08:51;14.20;;;6.95;;
16660;SDS011;8444;52.012;5.048;2023-05-06T10:11:18;11.93;;;6.18;;
16660;SDS011;8444;52.012;5.048;2023-05-06T10:13:45;9.13;;;6.40;;
16660;SDS011;8444;52.012;5.048;2023-05-06T10:16:10;11.30;;;6.82;;
16660;SDS011;8444;52.012;5.048;2023-05-06T10:18:36;10.25;;;6.75;;
16660;SDS011;8444;52.012;5.048;2023-05-06T10:21:02;7.75;;;6.43;;
16660;SDS011;8444;52.012;5.048;2023-05-06T10:23:56;13.30;;;7.70;;
16660;SDS011;8444;52.012;5.048;2023-05-06T10:26:20;13.15;;;8.45;;
16660;SDS011;8444;52.012;5.048;2023-05-06T10:28:46;13.15;;;7.88;;
16660;SDS011;8444;52.012;5.048;2023-05-06T10:31:16;10.50;;;7.65;;
16660;SDS011;8444;52.012;5.048;2023-05-06T10:33:44;9.23;;;7.40;;
16660;SDS011;8444;52.012;5.048;2023-05-06T10:36:17;10.90;;;7.10;;
16660;SDS011;8444;52.012;5.048;2023-05-06T10:38:44;10.07;;;7.85;;
16660;SDS011;8444;52.012;5.048;2023-05-06T10:41:11;9.57;;;7.65;;
16660;SDS011;8444;52.012;5.048;2023-05-06T10:43:40;11.00;;;7.60;;
16660;SDS011;8444;52.012;5.048;2023-05-06T10:48:35;13.57;;;8.68;;
16660;SDS011;8444;52.012;5.048;2023-05-06T10:54:00;8.85;;;7.55;;
16660;SDS011;8444;52.012;5.048;2023-05-06T10:56:30;10.85;;;7.40;;
16660;SDS011;8444;52.012;5.048;2023-05-06T10:58:55;10.52;;;7.38;;
16660;SDS011;8444;52.012;5.048;2023-05-06T11:01:25;9.85;;;7.28;;
16660;SDS011;8444;52.012;5.048;2023-05-06T11:03:50;10.20;;;8.70;;
16660;SDS011;8444;52.012;5.048;2023-05-06T11:06:49;10.45;;;7.68;;
16660;SDS011;8444;52.012;5.048;2023-05-06T11:11:48;9.02;;;7.60;;
16660;SDS011;8444;52.012;5.048;2023-05-06T11:14:23;9.95;;;6.72;;
16660;SDS011;8444;52.012;5.048;2023-05-06T11:16:49;8.30;;;6.18;;
16660;SDS011;8444;52.012;5.048;2023-05-06T11:19:56;16.75;;;7.40;;
16660;SDS011;8444;52.012;5.048;2023-05-06T11:22:03;10.07;;;6.25;;
16660;SDS011;8444;52.012;5.048;2023-05-06T11:24:29;10.45;;;7.50;;
16660;SDS011;8444;52.012;5.048;2023-05-06T11:26:56;9.95;;;6.68;;
16660;SDS011;8444;52.012;5.048;2023-05-06T11:29:21;9.40;;;6.63;;
16660;SDS011;8444;52.012;5.048;2023-05-06T11:31:47;9.93;;;5.93;;
16660;SDS011;8444;52.012;5.048;2023-05-06T11:34:13;8.70;;;6.20;;
16660;SDS011;8444;52.012;5.048;2023-05-06T11:36:56;5.68;;;4.50;;
16660;SDS011;8444;52.012;5.048;2023-05-06T11:39:22;11.48;;;5.65;;
16660;SDS011;8444;52.012;5.048;2023-05-06T11:41:47;7.82;;;5.07;;
16660;SDS011;8444;52.012;5.048;2023-05-06T11:44:22;8.57;;;4.68;;
16660;SDS011;8444;52.012;5.048;2023-05-06T11:46:47;7.93;;;5.18;;
16660;SDS011;8444;52.012;5.048;2023-05-06T11:49:12;7.70;;;5.13;;
16660;SDS011;8444;52.012;5.048;2023-05-06T11:51:39;11.05;;;5.45;;
16660;SDS011;8444;52.012;5.048;2023-05-06T11:54:05;5.80;;;4.20;;
16660;SDS011;8444;52.012;5.048;2023-05-06T11:56:41;8.10;;;4.20;;
16660;SDS011;8444;52.012;5.048;2023-05-06T11:59:06;6.70;;;5.07;;
16660;SDS011;8444;52.012;5.048;2023-05-06T12:01:32;6.63;;;4.87;;
16660;SDS011;8444;52.012;5.048;2023-05-06T12:03:57;8.07;;;5.43;;
16660;SDS011;8444;52.012;5.048;2023-05-06T12:06:34;6.23;;;5.20;;
16660;SDS011;8444;52.012;5.048;2023-05-06T12:09:00;6.40;;;4.85;;
16660;SDS011;8444;52.012;5.048;2023-05-06T12:11:26;6.70;;;3.88;;
16660;SDS011;8444;52.012;5.048;2023-05-06T12:13:51;7.45;;;4.75;;
16660;SDS011;8444;52.012;5.048;2023-05-06T12:16:17;6.82;;;4.43;;
16660;SDS011;8444;52.012;5.048;2023-05-06T12:18:42;4.40;;;3.20;;
16660;SDS011;8444;52.012;5.048;2023-05-06T12:21:07;8.45;;;5.18;;
16660;SDS011;8444;52.012;5.048;2023-05-06T12:23:32;7.57;;;4.20;;
16660;SDS011;8444;52.012;5.048;2023-05-06T12:26:01;7.07;;;4.03;;
16660;SDS011;8444;52.012;5.048;2023-05-06T12:28:27;5.90;;;3.92;;
16660;SDS011;8444;52.012;5.048;2023-05-06T12:30:53;7.57;;;3.85;;
16660;SDS011;8444;52.012;5.048;2023-05-06T12:33:18;6.00;;;3.70;;
16660;SDS011;8444;52.012;5.048;2023-05-06T12:35:43;5.70;;;4.70;;
16660;SDS011;8444;52.012;5.048;2023-05-06T12:38:10;7.03;;;3.90;;
16660;SDS011;8444;52.012;5.048;2023-05-06T12:40:35;6.80;;;5.07;;
16660;SDS011;8444;52.012;5.048;2023-05-06T12:43:01;9.60;;;4.68;;
16660;SDS011;8444;52.012;5.048;2023-05-06T12:45:26;9.65;;;4.53;;
16660;SDS011;8444;52.012;5.048;2023-05-06T12:47:54;9.13;;;4.93;;
16660;SDS011;8444;52.012;5.048;2023-05-06T12:50:36;6.85;;;4.47;;
16660;SDS011;8444;52.012;5.048;2023-05-06T12:53:05;6.60;;;4.00;;
16660;SDS011;8444;52.012;5.048;2023-05-06T12:55:31;8.48;;;5.30;;
16660;SDS011;8444;52.012;5.048;2023-05-06T12:57:56;7.53;;;4.28;;
16660;SDS011;8444;52.012;5.048;2023-05-06T13:00:22;9.20;;;5.35;;
16660;SDS011;8444;52.012;5.048;2023-05-06T13:02:47;7.33;;;4.43;;
16660;SDS011;8444;52.012;5.048;2023-05-06T13:05:12;7.47;;;4.50;;
16660;SDS011;8444;52.012;5.048;2023-05-06T13:07:38;6.55;;;4.22;;
16660;SDS011;8444;52.012;5.048;2023-05-06T13:10:03;7.72;;;4.82;;
16660;SDS011;8444;52.012;5.048;2023-05-06T13:12:30;5.72;;;4.25;;
16660;SDS011;8444;52.012;5.048;2023-05-06T13:14:56;7.07;;;4.60;;
16660;SDS011;8444;52.012;5.048;2023-05-06T13:17:21;7.45;;;4.53;;
16660;SDS011;8444;52.012;5.048;2023-05-06T13:19:47;7.45;;;5.00;;
16660;SDS011;8444;52.012;5.048;2023-05-06T13:22:12;6.83;;;4.63;;
16660;SDS011;8444;52.012;5.048;2023-05-06T13:24:37;5.45;;;4.15;;
16660;SDS011;8444;52.012;5.048;2023-05-06T13:27:02;6.45;;;4.38;;
16660;SDS011;8444;52.012;5.048;2023-05-06T13:29:28;7.50;;;4.50;;
16660;SDS011;8444;52.012;5.048;2023-05-06T13:31:53;9.45;;;5.30;;
16660;SDS011;8444;52.012;5.048;2023-05-06T13:34:19;7.65;;;4.93;;
16660;SDS011;8444;52.012;5.048;2023-05-06T13:36:44;7.20;;;4.53;;
16660;SDS011;8444;52.012;5.048;2023-05-06T13:39:11;6.13;;;4.03;;
16660;SDS011;8444;52.012;5.048;2023-05-06T13:41:36;6.63;;;3.95;;
16660;SDS011;8444;52.012;5.048;2023-05-06T13:44:02;10.50;;;4.93;;
16660;SDS011;8444;52.012;5.048;2023-05-06T13:46:27;7.70;;;5.00;;
16660;SDS011;8444;52.012;5.048;2023-05-06T13:48:52;9.02;;;5.05;;
16660;SDS011;8444;52.012;5.048;2023-05-06T13:51:17;6.47;;;3.97;;
16660;SDS011;8444;52.012;5.048;2023-05-06T13:53:43;7.10;;;4.70;;
16660;SDS011;8444;52.012;5.048;2023-05-06T13:56:08;7.30;;;4.80;;
16660;SDS011;8444;52.012;5.048;2023-05-06T13:58:33;5.88;;;4.18;;
16660;SDS011;8444;52.012;5.048;2023-05-06T14:00:59;7.40;;;4.03;;
16660;SDS011;8444;52.012;5.048;2023-05-06T14:03:24;7.28;;;3.70;;
16660;SDS011;8444;52.012;5.048;2023-05-06T14:05:49;5.40;;;4.30;;
16660;SDS011;8444;52.012;5.048;2023-05-06T14:08:15;4.90;;;3.30;;
16660;SDS011;8444;52.012;5.048;2023-05-06T14:10:40;4.90;;;3.73;;
16660;SDS011;8444;52.012;5.048;2023-05-06T14:13:05;4.95;;;4.10;;
16660;SDS011;8444;52.012;5.048;2023-05-06T14:15:31;6.45;;;4.28;;
16660;SDS011;8444;52.012;5.048;2023-05-06T14:17:56;4.20;;;3.13;;
16660;SDS011;8444;52.012;5.048;2023-05-06T14:20:21;6.53;;;3.38;;
16660;SDS011;8444;52.012;5.048;2023-05-06T14:22:46;3.72;;;2.97;;
16660;SDS011;8444;52.012;5.048;2023-05-06T14:25:12;6.73;;;4.17;;
16660;SDS011;8444;52.012;5.048;2023-05-06T14:27:37;6.30;;;3.70;;
16660;SDS011;8444;52.012;5.048;2023-05-06T14:30:02;5.60;;;3.50;;
16660;SDS011;8444;52.012;5.048;2023-05-06T14:32:30;6.65;;;4.20;;
16660;SDS011;8444;52.012;5.048;2023-05-06T14:34:56;6.20;;;3.83;;
16660;SDS011;8444;52.012;5.048;2023-05-06T14:37:21;4.93;;;3.30;;
16660;SDS011;8444;52.012;5.048;2023-05-06T14:39:47;3.87;;;2.87;;
16660;SDS011;8444;52.012;5.048;2023-05-06T14:42:12;3.93;;;2.40;;
16660;SDS011;8444;52.012;5.048;2023-05-06T14:44:37;4.30;;;2.40;;
16660;SDS011;8444;52.012;5.048;2023-05-06T14:47:02;3.17;;;2.10;;
16660;SDS011;8444;52.012;5.048;2023-05-06T14:49:27;3.13;;;1.90;;